DRZA/AJY METAR and TAF weather

Enter ICAO airport designator
Station Type Date Time Source
DRZA METAR 2018/04/23 11:00 UTC NOAA

DRZA 231100Z 14009KT 120V250 CAVOK 41/07 Q1011


Station Type Date Time Source
DRZA Decoded METAR 2018/04/23 11:00 UTC NOAA

Agadez, Niger (DRZA) 16-58N 007-59E 502M
Apr 23, 2018 - 07:00 AM EDT / 2018.04.23 1100 UTC
Wind: from the SE (140 degrees) at 10 MPH (9 KT) (direction variable):0
Visibility: greater than 7 mile(s):0
Temperature: 105 F (41 C)
Dew Point: 44 F (7 C)
Relative Humidity: 12%
Pressure (altimeter): 29.85 in. Hg (1011 hPa)
ob: DRZA 231100Z 14009KT 120V250 CAVOK 41/07 Q1011
cycle: 11

Station Type Date Time Source
DRZA TAF 2018/04/23 12:24 UTC NOAA

TAF DRZA 231100Z 2312/2412 34010KT 8000 NSC


Example: see airport list